Angelica, Wisconsin
Current Conditions -  °F | °C
As of 9:53 AM on Friday 21 Nov 2014 (Local Time) from KGRB Reporting Station
Clear Clear  
Wind Chill:   Ceiling: Unl
Heat Index: 17°   Visibility: 10mi
Dew Point:   Wind: 12mph
Humidity: 59%   Direction: 220°SW
Pressure: 30.38"   Gusts: NA
Location:  44.6594°N, 88.2945°W
Report Text: KGRB 211553Z 22010KT 10SM CLR M08/M15 A3038 RMK AO2 SLP303 T10831150
Loading
Personal Weather Stations






























Interactive Weather Map New forecast layout! Learn more

10-Day Weather Forecast

Advertisements
Track Severe Weather on mobile